Historyczne dane pomiarowe

Dodano dane terminowe – wersja testowa.

Dane z okresu 1951-2019

Wersja bazy: 1.34 [2019-03-16, lista zmian], aktualizacja planowana na 2019-04-15

Dane meteo z obszaru Polski uzyskane na podstawie danych udostępnionych przez Instytut Meteorologii i Gospodarki Wodnej – Państwowy Instytut Badawczy.

 

Wybierz Datę:    

       

TemperaturaWilgotnośćWiatrCiśnienieOpadyŚniegCzas trwania zjawisk
 Stacja t tx tn tng RH VA  wxwx mslp ppp RRR   cm mm wxwxwxwxwxwxwx
2002-10-10 4.4 7.2 2.3 2.2-- 8.0----- 0.3------------
2002-10-09 5.0 6.1 3.3 2.8-- 8.0----- 0.4------------
2002-10-08 5.2 8.9 2.3 1.8-- 7.0----- 1.2------------
2002-10-07 5.9 9.9 3.2 3.1-- 7.7----- 7.2------------
2002-10-06 9.4 12.1 6.8 5.9-- 6.3----- 2.8------------
2002-10-05 11.1 14.1 8.4 7.6-- 6.3----- 0.4------------
2002-10-04 12.7 17.6 9.4 7.3-- 6.0----- 6.2------------
2002-10-03 11.8 18.9 4.2 2.8-- 5.0----- 0.0------------
2002-10-02 12.3 17.4 9.4 8.9-- 5.3----- 0.0------------
2002-10-01 9.9 16.4 4.2 4.1-- 7.3----- 0.0------------
2002-09-30 6.8 15.2 0.5 -0.6-- 1.3----- 0.0------------
2002-09-29 7.7 13.4 4.7 4.6-- 4.3----- 0.0------------
2002-09-28 9.0 10.5 7.5 7.4-- 7.7----- 2.8------------
2002-09-27 8.9 11.3 5.2 3.8-- 7.7----- 3.6------------
2002-09-26 8.5 10.1 7.3 7.2-- 8.0----- 0.2------------
2002-09-25 7.5 8.9 5.4 5.2-- 8.0----- 5.5------------
2002-09-24 6.0 8.4 4.2 4.1-- 8.0----- 12.8------------
2002-09-23 8.8 11.6 7.1 6.0-- 8.0----- 11.8------------
2002-09-22 10.0 13.1 6.8 6.2-- 6.7----- 0.4------------
2002-09-21 12.8 15.9 10.9 10.7-- 7.7----- 0.3------------
2002-09-20 13.9 19.4 10.2 10.1-- 7.0----- 8.0------------
2002-09-19 14.4 19.5 11.4 10.5-- 7.3----- 0.0------------
2002-09-18 13.5 16.6 10.1 10.0-- 7.3----- 0.4------------
2002-09-17 10.6 13.5 8.3 7.9-- 7.7----- 3.7------------
2002-09-16 11.1 14.9 8.3 8.1-- 7.0----- 7.1------------
2002-09-15 11.7 13.7 10.4 10.3-- 8.0----- 4.2------------
2002-09-14 10.6 16.6 4.9 3.5-- 7.3----- 14.3------------
2002-09-13 10.5 16.9 5.4 3.8-- 4.0----- 0.0------------
2002-09-12 9.2 14.9 2.4 0.9-- 3.7----- 0.0------------
2002-09-11 15.2 21.6 11.2 10.5-- 2.7----- 0.0------------
2002-09-10 16.1 24.9 9.6 8.6-- 3.0----- 0.0------------
2002-09-09 17.3 25.4 10.2 10.0-- 1.7----- 0.1------------
2002-09-08 17.7 25.9 11.4 11.3-- 3.0----- 0.0------------
2002-09-07 18.1 23.2 13.9 13.6-- 6.3----- 0.0------------
2002-09-06 18.4 25.8 12.4 11.2-- 4.0----- 2.8------------
2002-09-05 19.1 28.1 12.1 10.0-- 4.0----- 0.0------------
2002-09-04 18.2 28.4 10.3 8.9-- 3.3----- 0.0------------
2002-09-03 17.6 25.1 10.9 9.8-- 0.7----- 0.1------------
2002-09-02 15.8 21.1 12.6 12.0-- 6.3----- 2.9------------
2002-09-01 18.7 26.1 10.2 8.6-- 3.3----- 0.0------------
2002-08-31 17.9 26.4 11.7 10.7-- 1.0----- 0.0------------
2002-08-30 19.3 27.9 11.6 10.7-- 0.3----- 0.0------------
2002-08-29 19.3 27.6 12.8 11.5-- 1.7----- 0.0------------
2002-08-28 21.2 27.9 15.1 12.2-- 2.7----- 0.0------------
2002-08-27 18.8 27.6 10.6 8.3-- 0.7----- 0.0------------
2002-08-26 18.6 26.1 11.7 10.0-- 0.7----- 0.0------------
2002-08-25 20.1 28.1 12.6 10.5-- 0.3----- 0.0------------
2002-08-24 18.8 27.9 10.8 9.8-- 0.0----- 0.0------------
2002-08-23 19.3 27.4 11.8 11.2-- 0.3----- 0.0------------
2002-08-22 18.1 25.9 10.6 9.4-- 1.3----- 0.0------------
2002-08-21 17.2 25.7 8.7 6.2-- 1.7----- 0.0------------
2002-08-20 18.1 25.5 10.0 8.3-- 1.3----- 0.0------------
2002-08-19 18.8 24.5 14.3 12.4-- 1.0----- 0.0------------
2002-08-18 20.5 28.2 14.2 12.8-- 3.7----- 0.5------------
2002-08-17 19.4 26.9 13.2 12.3-- 1.7----- 0.0------------
2002-08-16 20.2 26.6 16.1 15.4-- 6.3----- 0.0------------
2002-08-15 19.9 24.9 16.8 15.9-- 6.7----- 8.9------------
2002-08-14 16.9 18.4 15.1 14.9-- 8.0----- 25.2------------
2002-08-13 18.0 23.4 14.1 12.0-- 7.3----- 5.7------------
2002-08-12 20.0 25.6 16.9 16.1-- 5.3----- 0.1------------
326.9 ms

 

Źródłem pochodzenia danych jest Instytut Meteorologii i Gospodarki Wodnej – Państwowy Instytut Badawczy. Dane Instytutu Meteorologii i Gospodarki Wodnej – Państwowego Instytutu Badawczego zostały przetworzone.

Dane źródłowe można odnaleźć na stronie https://dane.imgw.pl